createdAt,value
2018-06-19T00:01:11.041Z,2.00
2018-06-19T00:03:38.936Z,1.80
2018-06-19T00:06:07.065Z,2.00
2018-06-19T00:08:34.780Z,1.90
2018-06-19T00:11:02.410Z,2.00
2018-06-19T00:13:30.162Z,1.70
2018-06-19T00:15:57.966Z,1.70
2018-06-19T00:18:28.602Z,1.80
2018-06-19T00:20:59.140Z,1.80
2018-06-19T00:23:26.795Z,1.50
2018-06-19T00:25:54.465Z,1.70
2018-06-19T00:28:22.366Z,1.80
2018-06-19T00:30:49.966Z,1.83
2018-06-19T00:33:17.671Z,1.43
2018-06-19T00:35:45.518Z,1.80
2018-06-19T00:38:13.169Z,1.80
2018-06-19T00:40:40.877Z,1.77
2018-06-19T00:43:08.894Z,1.70
2018-06-19T00:45:36.559Z,1.50
2018-06-19T00:48:04.235Z,1.67
2018-06-19T00:50:33.093Z,1.47
2018-06-19T00:53:01.346Z,1.53
2018-06-19T00:55:28.968Z,1.17
2018-06-19T00:57:56.967Z,1.40
2018-06-19T01:00:24.551Z,1.77
2018-06-19T01:02:52.209Z,1.90
2018-06-19T01:05:20.235Z,1.87
2018-06-19T01:07:48.058Z,1.80
2018-06-19T01:10:15.681Z,1.47
2018-06-19T01:12:43.489Z,1.53
2018-06-19T01:15:11.098Z,1.30
2018-06-19T01:17:38.757Z,1.57
2018-06-19T01:20:07.237Z,1.17
2018-06-19T01:22:34.877Z,1.57
2018-06-19T01:25:02.455Z,1.60
2018-06-19T01:27:30.310Z,1.47
2018-06-19T01:29:57.921Z,1.37
2018-06-19T01:32:25.607Z,1.77
2018-06-19T01:34:53.734Z,1.37
2018-06-19T01:37:21.292Z,1.70
2018-06-19T01:39:48.896Z,1.63
2018-06-19T01:42:16.827Z,1.87
2018-06-19T01:44:44.421Z,1.67
2018-06-19T01:47:12.055Z,1.20
2018-06-19T01:49:39.929Z,1.27
2018-06-19T01:52:07.552Z,1.63
2018-06-19T01:54:35.200Z,1.40
2018-06-19T01:57:02.970Z,1.80
2018-06-19T01:59:30.545Z,1.50
2018-06-19T02:01:58.144Z,1.67
2018-06-19T02:04:26.281Z,1.83
2018-06-19T02:06:53.878Z,1.30
2018-06-19T02:09:21.684Z,1.43
2018-06-19T02:11:49.642Z,1.57
2018-06-19T02:14:17.247Z,1.73
2018-06-19T02:16:44.873Z,1.40
2018-06-19T02:19:12.923Z,1.77
2018-06-19T02:21:40.517Z,1.47
2018-06-19T02:24:08.191Z,1.60
2018-06-19T02:26:36.211Z,1.20
2018-06-19T02:29:03.788Z,1.60
2018-06-19T02:31:31.410Z,1.30
2018-06-19T02:33:59.434Z,1.43
2018-06-19T02:36:27.022Z,1.20
2018-06-19T02:38:54.603Z,1.30
2018-06-19T02:41:22.714Z,1.53
2018-06-19T02:43:50.315Z,1.20
2018-06-19T02:46:17.928Z,1.27
2018-06-19T02:48:46.035Z,1.27
2018-06-19T02:51:13.683Z,1.60
2018-06-19T02:53:41.298Z,1.13
2018-06-19T02:56:09.369Z,1.73
2018-06-19T02:58:37.008Z,1.20
2018-06-19T03:01:04.661Z,1.50
2018-06-19T03:03:32.637Z,1.60
2018-06-19T03:06:00.220Z,1.37
2018-06-19T03:08:27.868Z,1.50
2018-06-19T03:10:56.094Z,1.30
2018-06-19T03:13:23.684Z,1.57
2018-06-19T03:15:51.299Z,1.27
2018-06-19T03:18:19.308Z,1.80
2018-06-19T03:20:46.944Z,1.63
2018-06-19T03:23:14.539Z,1.53
2018-06-19T03:25:42.481Z,1.73
2018-06-19T03:28:10.015Z,1.87
2018-06-19T03:30:37.582Z,1.80
2018-06-19T03:33:05.597Z,1.93
2018-06-19T03:35:33.164Z,1.40
2018-06-19T03:38:00.831Z,1.73
2018-06-19T03:40:28.893Z,1.83
2018-06-19T03:42:56.469Z,2.00
2018-06-19T03:45:24.185Z,1.87
2018-06-19T03:47:52.298Z,1.63
2018-06-19T03:50:19.917Z,1.90
2018-06-19T03:52:47.522Z,1.80
2018-06-19T03:55:15.645Z,2.10
2018-06-19T03:57:43.252Z,2.00
2018-06-19T04:00:10.849Z,2.30
2018-06-19T04:02:38.711Z,2.47
2018-06-19T04:05:06.324Z,2.30
2018-06-19T04:07:34.196Z,2.30
2018-06-19T04:10:02.502Z,2.33
2018-06-19T04:12:30.263Z,1.87
2018-06-19T04:14:57.885Z,1.97
2018-06-19T04:17:26.853Z,2.00
2018-06-19T04:19:55.532Z,2.10
2018-06-19T04:22:23.395Z,2.40
2018-06-19T04:24:52.904Z,1.83
2018-06-19T04:27:35.417Z,2.17
2018-06-19T04:30:03.629Z,2.27
2018-06-19T04:32:31.189Z,2.17
2018-06-19T04:34:58.847Z,2.00
2018-06-19T04:37:26.842Z,2.40
2018-06-19T04:39:54.434Z,2.80
2018-06-19T04:42:22.052Z,2.40
2018-06-19T04:44:49.961Z,2.70
2018-06-19T04:47:17.540Z,2.57
2018-06-19T04:49:45.314Z,3.03
2018-06-19T04:52:14.079Z,3.57
2018-06-19T04:54:41.653Z,2.73
2018-06-19T04:57:09.307Z,3.00
2018-06-19T04:59:37.351Z,3.20
2018-06-19T05:02:04.958Z,2.73
2018-06-19T05:04:32.587Z,2.70
2018-06-19T05:07:00.397Z,2.73
2018-06-19T05:09:28.011Z,2.57
2018-06-19T05:11:55.668Z,2.70
2018-06-19T05:14:23.677Z,2.73
2018-06-19T05:16:51.257Z,2.80
2018-06-19T05:19:18.883Z,3.10
2018-06-19T05:21:47.097Z,2.80
2018-06-19T05:24:14.763Z,3.07
2018-06-19T05:26:42.411Z,2.83
2018-06-19T05:29:10.360Z,2.60
2018-06-19T05:31:37.997Z,2.43
2018-06-19T05:34:05.630Z,2.70
2018-06-19T05:36:33.579Z,2.70
2018-06-19T05:39:01.316Z,2.80
2018-06-19T05:41:28.984Z,3.13
2018-06-19T05:43:56.892Z,3.27
2018-06-19T05:46:24.607Z,3.30
2018-06-19T05:48:52.230Z,3.47
2018-06-19T05:51:20.132Z,3.07
2018-06-19T05:53:47.788Z,3.17
2018-06-19T05:56:15.385Z,3.60
2018-06-19T05:58:43.457Z,3.57
2018-06-19T06:01:11.043Z,3.17
2018-06-19T06:03:38.618Z,3.57
2018-06-19T06:06:06.558Z,3.83
2018-06-19T06:08:34.174Z,3.43
2018-06-19T06:11:01.780Z,3.20
2018-06-19T06:13:29.706Z,3.70
2018-06-19T06:15:57.863Z,3.50
2018-06-19T06:18:25.644Z,3.80
2018-06-19T06:20:53.783Z,3.30
2018-06-19T06:23:21.382Z,3.00
2018-06-19T06:25:49.072Z,3.60
2018-06-19T06:28:16.906Z,3.67
2018-06-19T06:30:44.500Z,3.03
2018-06-19T06:33:12.109Z,3.47
2018-06-19T06:35:40.049Z,3.17
2018-06-19T06:38:07.666Z,3.30
2018-06-19T06:40:35.317Z,3.33
2018-06-19T06:43:03.269Z,3.40
2018-06-19T06:45:30.949Z,3.70
2018-06-19T06:47:58.546Z,3.60
2018-06-19T06:50:26.567Z,3.87
2018-06-19T06:52:54.205Z,3.83
2018-06-19T06:55:21.830Z,3.90
2018-06-19T06:57:49.681Z,3.50
2018-06-19T07:00:17.343Z,3.33
2018-06-19T07:02:44.893Z,3.70
2018-06-19T07:05:12.607Z,3.17
2018-06-19T07:07:40.218Z,3.53
2018-06-19T07:10:07.913Z,3.50
2018-06-19T07:12:35.844Z,3.77
2018-06-19T07:15:03.562Z,3.20
2018-06-19T07:17:31.418Z,3.70
2018-06-19T07:19:59.240Z,2.70
2018-06-19T07:22:26.886Z,3.10
2018-06-19T07:24:54.543Z,2.97
2018-06-19T07:27:22.613Z,2.60
2018-06-19T07:29:50.196Z,3.07
2018-06-19T07:32:17.894Z,2.90
2018-06-19T07:34:45.857Z,2.87
2018-06-19T07:37:13.437Z,3.17
2018-06-19T07:39:41.053Z,3.30
2018-06-19T07:42:08.845Z,3.10
2018-06-19T07:44:36.481Z,3.17
2018-06-19T07:47:04.136Z,2.80
2018-06-19T07:49:31.995Z,2.80
2018-06-19T07:51:59.637Z,2.80
2018-06-19T07:54:27.313Z,2.90
2018-06-19T07:56:55.244Z,2.60
2018-06-19T07:59:22.823Z,2.73
2018-06-19T08:01:50.405Z,3.07
2018-06-19T08:04:18.250Z,2.67
2018-06-19T08:06:45.895Z,2.80
2018-06-19T08:09:13.578Z,4.00
2018-06-19T08:11:41.577Z,2.80
2018-06-19T08:14:09.203Z,3.00
2018-06-19T08:16:36.807Z,2.50
2018-06-19T08:19:05.029Z,2.60
2018-06-19T08:21:32.630Z,2.53
2018-06-19T08:24:00.232Z,2.63
2018-06-19T08:26:28.214Z,2.33
2018-06-19T08:28:55.924Z,2.37
2018-06-19T08:31:23.571Z,2.33
2018-06-19T08:33:51.587Z,1.63
2018-06-19T08:36:19.224Z,2.30
2018-06-19T08:38:46.888Z,2.07
2018-06-19T08:41:14.896Z,1.90
2018-06-19T08:43:42.548Z,2.07
2018-06-19T08:46:10.195Z,2.37
2018-06-19T08:48:38.049Z,1.80
2018-06-19T08:51:05.627Z,1.83
2018-06-19T08:53:33.321Z,2.10
2018-06-19T08:56:01.385Z,1.93
2018-06-19T08:58:28.994Z,2.00
2018-06-19T09:00:56.623Z,1.87
2018-06-19T09:03:24.392Z,2.00
2018-06-19T09:05:51.995Z,1.93
2018-06-19T09:08:19.635Z,1.90
2018-06-19T09:10:47.406Z,2.03
2018-06-19T09:13:15.049Z,1.67
2018-06-19T09:15:42.639Z,1.87
2018-06-19T09:18:10.603Z,2.13
2018-06-19T09:20:38.476Z,1.63
2018-06-19T09:23:06.173Z,1.90
2018-06-19T09:25:34.051Z,1.83
2018-06-19T09:28:01.864Z,1.90
2018-06-19T09:30:29.532Z,1.90
2018-06-19T09:32:57.472Z,2.07
2018-06-19T09:35:25.071Z,1.73
2018-06-19T09:37:52.709Z,1.70
2018-06-19T09:40:20.507Z,1.60
2018-06-19T09:42:48.175Z,1.60
2018-06-19T09:45:15.686Z,1.77
2018-06-19T09:47:43.819Z,1.90
2018-06-19T09:50:11.416Z,1.97
2018-06-19T09:52:39.069Z,1.70
2018-06-19T09:55:07.204Z,1.70
2018-06-19T09:57:34.974Z,2.10
2018-06-19T10:00:02.688Z,1.70
2018-06-19T10:02:30.576Z,2.20
2018-06-19T10:04:58.090Z,2.33
2018-06-19T10:07:25.828Z,1.80
2018-06-19T10:09:53.639Z,1.43
2018-06-19T10:12:21.520Z,1.87
2018-06-19T10:14:49.250Z,2.30
2018-06-19T10:17:17.215Z,2.03
2018-06-19T10:19:44.862Z,2.00
2018-06-19T10:22:12.834Z,1.90
2018-06-19T10:24:40.575Z,1.90
2018-06-19T10:27:08.226Z,1.87
2018-06-19T10:29:36.094Z,2.53
2018-06-19T10:32:03.970Z,2.20
2018-06-19T10:34:31.598Z,2.33
2018-06-19T10:36:59.293Z,2.20
2018-06-19T10:39:26.972Z,2.00
2018-06-19T10:41:54.610Z,2.00
2018-06-19T10:44:22.267Z,2.30
2018-06-19T10:46:49.884Z,2.60
2018-06-19T10:49:17.449Z,2.03
2018-06-19T10:51:44.996Z,2.53
2018-06-19T10:54:12.567Z,2.20
2018-06-19T10:56:40.120Z,2.30
2018-06-19T10:59:07.690Z,2.00
2018-06-19T11:01:36.511Z,1.87
2018-06-19T11:04:04.051Z,1.40
2018-06-19T11:06:31.660Z,1.00
2018-06-19T11:08:59.588Z,0.70
2018-06-19T11:11:27.139Z,0.37
2018-06-19T11:13:54.852Z,0.50
2018-06-19T11:16:22.645Z,0.40
2018-06-19T11:18:50.248Z,0.20
2018-06-19T11:21:17.970Z,0.30
2018-06-19T11:23:45.999Z,0.20
2018-06-19T11:26:14.051Z,0.10
2018-06-19T11:28:41.657Z,0.20
2018-06-19T11:31:09.507Z,0.10
2018-06-19T11:33:37.025Z,0.10
2018-06-19T11:36:04.716Z,0.10
2018-06-19T11:38:32.429Z,0.00
2018-06-19T11:41:00.029Z,0.10
2018-06-19T11:43:27.702Z,0.10
2018-06-19T11:45:55.376Z,0.10
2018-06-19T11:48:22.934Z,0.00
2018-06-19T11:50:50.707Z,0.10
2018-06-19T11:53:18.450Z,0.10
2018-06-19T11:55:45.976Z,0.07
2018-06-19T11:58:13.811Z,0.10
2018-06-19T12:00:41.504Z,0.00
2018-06-19T12:03:09.108Z,0.00
2018-06-19T12:05:37.959Z,0.10
2018-06-19T12:08:05.565Z,0.10
2018-06-19T12:10:33.190Z,0.10
2018-06-19T12:13:01.024Z,0.10
2018-06-19T12:15:28.764Z,0.00
2018-06-19T12:17:56.339Z,0.10
2018-06-19T12:20:24.196Z,0.00
2018-06-19T12:22:51.784Z,0.00
2018-06-19T12:25:19.610Z,0.10
2018-06-19T12:27:47.361Z,0.10
2018-06-19T12:30:15.100Z,0.00
2018-06-19T12:32:42.671Z,0.03
2018-06-19T12:35:10.457Z,0.10
2018-06-19T12:37:38.252Z,0.07
2018-06-19T12:40:06.081Z,0.20
2018-06-19T12:42:33.771Z,0.10
2018-06-19T12:45:01.481Z,0.20
2018-06-19T12:47:29.029Z,0.00
2018-06-19T12:50:36.018Z,0.10
2018-06-19T12:53:15.575Z,0.00
2018-06-19T12:55:54.541Z,0.10
2018-06-19T12:58:22.212Z,0.00
2018-06-19T13:00:49.791Z,0.20
2018-06-19T13:03:28.886Z,0.00
2018-06-19T13:06:08.195Z,0.10
2018-06-19T13:08:35.945Z,0.00
2018-06-19T13:11:04.075Z,0.20
2018-06-19T13:13:43.006Z,0.03
2018-06-19T13:16:21.806Z,0.10
2018-06-19T13:19:00.581Z,0.10
2018-06-19T13:21:28.331Z,0.10
2018-06-19T13:23:55.911Z,0.10
2018-06-19T13:26:23.760Z,0.10
2018-06-19T13:30:03.824Z,0.10
2018-06-19T13:32:32.046Z,0.00
2018-06-19T13:34:59.786Z,0.00
2018-06-19T13:37:27.336Z,0.17
2018-06-19T13:41:09.425Z,0.00
2018-06-19T13:43:48.105Z,0.17
2018-06-19T13:46:15.969Z,0.10
2018-06-19T13:48:43.589Z,0.10
2018-06-19T13:51:11.946Z,0.00
2018-06-19T13:53:40.336Z,0.10
2018-06-19T13:57:17.022Z,0.10
2018-06-19T13:59:45.018Z,0.10
2018-06-19T14:02:12.574Z,0.10
2018-06-19T14:04:40.197Z,0.10
2018-06-19T14:07:08.007Z,0.07
2018-06-19T14:09:48.074Z,0.10
2018-06-19T14:13:01.302Z,0.00
2018-06-19T14:15:30.268Z,0.10
2018-06-19T14:17:58.230Z,0.20
2018-06-19T14:20:25.989Z,0.20
2018-06-19T14:22:53.459Z,0.07
2018-06-19T14:25:21.561Z,0.10
2018-06-19T14:27:49.405Z,0.10
2018-06-19T14:30:16.939Z,0.10
2018-06-19T14:32:45.350Z,0.10
2018-06-19T14:35:13.055Z,0.20
2018-06-19T14:37:40.737Z,0.10
2018-06-19T14:40:08.583Z,0.20
2018-06-19T14:42:36.374Z,0.20
2018-06-19T14:45:04.627Z,0.10
2018-06-19T14:47:32.473Z,0.17
2018-06-19T14:50:00.117Z,0.27
2018-06-19T14:52:27.957Z,0.10
2018-06-19T14:54:55.844Z,0.30
2018-06-19T14:57:23.488Z,0.20
2018-06-19T14:59:51.065Z,0.30
2018-06-19T15:02:18.951Z,0.13
2018-06-19T15:04:46.675Z,0.10
2018-06-19T15:07:14.268Z,0.20
2018-06-19T15:09:42.223Z,0.20
2018-06-19T15:12:09.819Z,0.10
2018-06-19T15:14:37.385Z,0.20
2018-06-19T15:17:05.161Z,0.20
2018-06-19T15:22:31.431Z,0.10
2018-06-19T15:24:59.009Z,0.30
2018-06-19T15:27:26.647Z,0.30
2018-06-19T15:29:54.766Z,0.20
2018-06-19T15:32:22.582Z,0.10
2018-06-19T15:34:50.113Z,0.20
2018-06-19T15:37:18.227Z,0.30
2018-06-19T15:39:45.966Z,0.20
2018-06-19T15:42:13.508Z,0.10
2018-06-19T15:44:41.263Z,0.20
2018-06-19T15:47:08.882Z,0.30
2018-06-19T15:49:36.495Z,0.40
2018-06-19T15:52:04.529Z,0.10
2018-06-19T15:54:32.120Z,0.40
2018-06-19T15:56:59.677Z,0.20
2018-06-19T15:59:27.752Z,0.10
2018-06-19T16:01:55.308Z,0.20
2018-06-19T16:04:22.921Z,0.27
2018-06-19T16:06:50.633Z,0.20
2018-06-19T16:09:18.188Z,0.10
2018-06-19T16:11:45.799Z,0.20
2018-06-19T16:14:13.477Z,0.13
2018-06-19T16:16:41.104Z,0.10
2018-06-19T16:19:08.704Z,0.13
2018-06-19T16:21:36.542Z,0.10
2018-06-19T16:24:04.208Z,0.10
2018-06-19T16:26:31.884Z,0.33
2018-06-19T16:28:59.594Z,0.20
2018-06-19T16:31:27.318Z,0.30
2018-06-19T16:33:54.909Z,0.20
2018-06-19T16:36:22.775Z,0.20
2018-06-19T16:38:50.375Z,0.30
2018-06-19T16:41:18.000Z,0.20
2018-06-19T16:43:45.955Z,0.30
2018-06-19T16:46:13.600Z,0.20
2018-06-19T16:48:41.164Z,0.20
2018-06-19T16:51:09.588Z,0.20
2018-06-19T16:53:37.202Z,0.20
2018-06-19T16:56:04.868Z,0.20
2018-06-19T16:58:32.651Z,0.20
2018-06-19T17:01:00.207Z,0.20
2018-06-19T17:03:27.783Z,0.10
2018-06-19T17:05:55.667Z,0.20
2018-06-19T17:08:23.240Z,0.20
2018-06-19T17:10:50.773Z,0.20
2018-06-19T17:13:18.513Z,0.30
2018-06-19T17:15:46.061Z,0.30
2018-06-19T17:18:13.667Z,0.30
2018-06-19T17:20:41.761Z,0.50
2018-06-19T17:23:09.294Z,0.30
2018-06-19T17:25:36.799Z,0.17
2018-06-19T17:28:04.856Z,0.20
2018-06-19T17:30:32.408Z,0.20
2018-06-19T17:33:00.160Z,0.20
2018-06-19T17:35:28.079Z,0.10
2018-06-19T17:37:55.668Z,0.30
2018-06-19T17:40:23.280Z,0.20
2018-06-19T17:42:51.236Z,0.30
2018-06-19T17:45:18.808Z,0.10
2018-06-19T17:47:46.399Z,0.10
2018-06-19T17:50:14.178Z,0.17
2018-06-19T17:52:41.751Z,0.10
2018-06-19T17:55:09.363Z,0.30
2018-06-19T17:57:37.064Z,0.10
2018-06-19T18:00:04.844Z,0.20
2018-06-19T18:02:32.428Z,0.20
2018-06-19T18:05:00.185Z,0.20
2018-06-19T18:07:27.757Z,0.30
2018-06-19T18:09:55.356Z,0.20
2018-06-19T18:12:23.074Z,0.30
2018-06-19T18:14:50.686Z,0.30
2018-06-19T18:17:18.350Z,0.30
2018-06-19T18:19:46.092Z,0.20
2018-06-19T18:22:13.688Z,0.30
2018-06-19T18:24:41.282Z,0.10
2018-06-19T18:27:08.996Z,0.30
2018-06-19T18:29:36.570Z,0.20
2018-06-19T18:32:04.148Z,0.20
2018-06-19T18:34:32.055Z,0.13
2018-06-19T18:36:59.630Z,0.10
2018-06-19T18:39:27.185Z,0.10
2018-06-19T18:41:54.944Z,0.20
2018-06-19T18:44:23.432Z,0.10
2018-06-19T18:46:51.044Z,0.20
2018-06-19T18:49:18.608Z,0.10
2018-06-19T18:51:46.249Z,0.07
2018-06-19T18:54:13.868Z,0.20
2018-06-19T18:56:41.621Z,0.10
2018-06-19T18:59:09.241Z,0.10
2018-06-19T19:01:36.829Z,0.10
2018-06-19T19:04:04.492Z,0.00
2018-06-19T19:06:32.160Z,0.20
2018-06-19T19:08:59.712Z,0.17
2018-06-19T19:11:27.430Z,0.00
2018-06-19T19:13:54.982Z,0.00
2018-06-19T19:16:28.055Z,0.20
2018-06-19T19:19:00.161Z,0.10
2018-06-19T19:21:27.688Z,0.00
2018-06-19T19:23:55.320Z,0.00
2018-06-19T19:26:28.642Z,0.10
2018-06-19T19:29:01.717Z,0.00
2018-06-19T19:31:29.781Z,0.00
2018-06-19T19:33:57.337Z,0.00
2018-06-19T19:36:30.614Z,0.10
2018-06-19T19:39:03.994Z,0.10
2018-06-19T19:41:31.644Z,0.00
2018-06-19T19:43:59.282Z,0.10
2018-06-19T19:46:32.462Z,0.10
2018-06-19T19:49:00.363Z,0.10
2018-06-19T19:51:28.479Z,0.10
2018-06-19T19:53:56.199Z,0.10
2018-06-19T19:56:29.305Z,0.10
2018-06-19T19:58:57.017Z,0.10
2018-06-19T20:01:24.666Z,0.10
2018-06-19T20:03:52.303Z,0.10
2018-06-19T20:06:20.017Z,0.10
2018-06-19T20:08:47.702Z,0.10
2018-06-19T20:11:15.275Z,0.10
2018-06-19T20:13:43.044Z,0.00
2018-06-19T20:16:10.658Z,0.00
2018-06-19T20:18:38.363Z,0.10
2018-06-19T20:21:06.124Z,0.10
2018-06-19T20:23:33.727Z,0.00
2018-06-19T20:26:01.419Z,0.10
2018-06-19T20:28:29.167Z,0.10
2018-06-19T20:30:56.867Z,0.00
2018-06-19T20:33:24.434Z,0.20
2018-06-19T20:35:52.145Z,0.10
2018-06-19T20:38:19.882Z,0.10
2018-06-19T20:40:47.497Z,0.10
2018-06-19T20:43:15.395Z,0.10
2018-06-19T20:45:43.251Z,0.00
2018-06-19T20:48:10.778Z,0.10
2018-06-19T20:50:38.495Z,0.00
2018-06-19T20:53:06.237Z,0.03
2018-06-19T20:55:33.761Z,0.00
2018-06-19T20:58:01.424Z,0.13
2018-06-19T21:00:29.159Z,0.10
2018-06-19T21:02:56.724Z,0.00
2018-06-19T21:05:24.613Z,0.00
2018-06-19T21:07:52.356Z,0.00
2018-06-19T21:10:19.894Z,0.00
2018-06-19T21:12:47.883Z,0.03
2018-06-19T21:15:15.481Z,0.10
2018-06-19T21:17:43.071Z,0.10
2018-06-19T21:20:11.163Z,0.03
2018-06-19T21:22:38.853Z,0.10
2018-06-19T21:25:06.455Z,0.00
2018-06-19T21:27:34.184Z,0.20
2018-06-19T21:30:01.932Z,0.10
2018-06-19T21:32:29.550Z,0.10
2018-06-19T21:34:57.335Z,0.17
2018-06-19T21:37:24.979Z,0.00
2018-06-19T21:39:52.729Z,0.20
2018-06-19T21:42:20.414Z,0.10
2018-06-19T21:44:48.235Z,0.00
2018-06-19T21:47:15.783Z,0.00
2018-06-19T21:49:43.468Z,0.00
2018-06-19T21:52:11.114Z,0.00
2018-06-19T21:54:38.676Z,0.00
2018-06-19T21:57:06.427Z,0.00
2018-06-19T21:59:34.089Z,0.00
2018-06-19T22:02:01.693Z,0.00
2018-06-19T22:04:29.427Z,0.00
2018-06-19T22:06:57.063Z,0.00
2018-06-19T22:09:24.606Z,0.00
2018-06-19T22:11:52.705Z,0.00
2018-06-19T22:14:20.541Z,0.00
2018-06-19T22:16:48.140Z,0.10
2018-06-19T22:19:15.903Z,0.00
2018-06-19T22:21:43.604Z,0.00
2018-06-19T22:24:11.128Z,0.10
2018-06-19T22:26:38.881Z,0.00
2018-06-19T22:29:06.577Z,0.00
2018-06-19T22:31:34.118Z,0.00
2018-06-19T22:34:02.149Z,0.00
2018-06-19T22:36:29.972Z,0.00
2018-06-19T22:38:57.507Z,0.00
2018-06-19T22:41:26.209Z,0.00
2018-06-19T22:43:53.839Z,0.00
2018-06-19T22:46:21.411Z,0.00
2018-06-19T22:48:49.019Z,0.00
2018-06-19T22:51:16.825Z,0.00
2018-06-19T22:53:44.425Z,0.00
2018-06-19T22:56:12.256Z,0.00
2018-06-19T22:58:39.929Z,0.00
2018-06-19T23:01:07.542Z,0.00
2018-06-19T23:03:35.406Z,0.00
2018-06-19T23:06:03.309Z,0.00
2018-06-19T23:08:33.337Z,0.00
2018-06-19T23:11:01.126Z,0.00
2018-06-19T23:13:28.897Z,0.00
2018-06-19T23:15:56.573Z,0.00
2018-06-19T23:18:24.360Z,0.10
2018-06-19T23:20:52.266Z,0.00
2018-06-19T23:23:19.913Z,0.00
2018-06-19T23:25:47.646Z,0.00
2018-06-19T23:28:15.440Z,0.00
2018-06-19T23:30:43.061Z,0.00
2018-06-19T23:33:10.965Z,0.00
2018-06-19T23:35:38.904Z,0.00
2018-06-19T23:38:06.533Z,0.00
2018-06-19T23:40:34.338Z,0.10
2018-06-19T23:43:02.337Z,0.00
2018-06-19T23:45:29.892Z,0.00
2018-06-19T23:47:57.657Z,0.00
2018-06-19T23:50:25.412Z,0.00
2018-06-19T23:52:53.038Z,0.00
2018-06-19T23:55:20.807Z,0.10
2018-06-19T23:57:48.629Z,0.00
